sensor_id;sensor_type;location;lat;lon;timestamp;pressure;altitude;pressure_sealevel;temperature;humidity
52693;BME280;68218;51.012;-1.648;2023-03-18T00:01:17;99433.47;;;9.51;100.00
52693;BME280;68218;51.012;-1.648;2023-03-18T00:03:42;99439.94;;;9.45;100.00
52693;BME280;68218;51.012;-1.648;2023-03-18T00:06:09;99447.19;;;9.50;100.00
52693;BME280;68218;51.012;-1.648;2023-03-18T00:08:36;99444.50;;;9.50;100.00
52693;BME280;68218;51.012;-1.648;2023-03-18T00:11:01;99444.75;;;9.48;100.00
52693;BME280;68218;51.012;-1.648;2023-03-18T00:13:29;99447.44;;;9.53;100.00
52693;BME280;68218;51.012;-1.648;2023-03-18T00:15:55;99445.81;;;9.52;100.00
52693;BME280;68218;51.012;-1.648;2023-03-18T00:18:21;99439.63;;;9.52;100.00
52693;BME280;68218;51.012;-1.648;2023-03-18T00:20:46;99438.84;;;9.51;100.00
52693;BME280;68218;51.012;-1.648;2023-03-18T00:23:12;99449.59;;;9.56;100.00
52693;BME280;68218;51.012;-1.648;2023-03-18T00:25:37;99440.69;;;9.56;100.00
52693;BME280;68218;51.012;-1.648;2023-03-18T00:28:06;99446.63;;;9.58;100.00
52693;BME280;68218;51.012;-1.648;2023-03-18T00:30:32;99437.44;;;9.59;100.00
52693;BME280;68218;51.012;-1.648;2023-03-18T00:32:57;99447.94;;;9.61;100.00
52693;BME280;68218;51.012;-1.648;2023-03-18T00:35:24;99443.09;;;9.57;100.00
52693;BME280;68218;51.012;-1.648;2023-03-18T00:37:52;99445.78;;;9.63;100.00
52693;BME280;68218;51.012;-1.648;2023-03-18T00:40:17;99438.53;;;9.58;100.00
52693;BME280;68218;51.012;-1.648;2023-03-18T00:42:44;99442.00;;;9.64;100.00
52693;BME280;68218;51.012;-1.648;2023-03-18T00:45:15;99442.56;;;9.61;100.00
52693;BME280;68218;51.012;-1.648;2023-03-18T00:47:43;99443.88;;;9.68;100.00
52693;BME280;68218;51.012;-1.648;2023-03-18T00:50:09;99442.81;;;9.64;100.00
52693;BME280;68218;51.012;-1.648;2023-03-18T00:52:34;99437.19;;;9.55;100.00
52693;BME280;68218;51.012;-1.648;2023-03-18T00:55:00;99435.59;;;9.60;100.00
52693;BME280;68218;51.012;-1.648;2023-03-18T00:57:26;99432.34;;;9.57;100.00
52693;BME280;68218;51.012;-1.648;2023-03-18T00:59:52;99446.34;;;9.60;100.00
52693;BME280;68218;51.012;-1.648;2023-03-18T01:02:18;99435.59;;;9.60;100.00
52693;BME280;68218;51.012;-1.648;2023-03-18T01:04:43;99433.72;;;9.55;100.00
52693;BME280;68218;51.012;-1.648;2023-03-18T01:07:09;99438.81;;;9.56;100.00
52693;BME280;68218;51.012;-1.648;2023-03-18T01:09:36;99433.69;;;9.60;100.00
52693;BME280;68218;51.012;-1.648;2023-03-18T01:12:05;99433.94;;;9.64;100.00
52693;BME280;68218;51.012;-1.648;2023-03-18T01:14:30;99435.28;;;9.61;100.00
52693;BME280;68218;51.012;-1.648;2023-03-18T01:16:55;99437.13;;;9.71;100.00
52693;BME280;68218;51.012;-1.648;2023-03-18T01:19:21;99429.38;;;9.59;99.80
52693;BME280;68218;51.012;-1.648;2023-03-18T01:21:48;99427.47;;;9.65;100.00
52693;BME280;68218;51.012;-1.648;2023-03-18T01:24:14;99425.84;;;9.64;100.00
52693;BME280;68218;51.012;-1.648;2023-03-18T01:26:39;99424.53;;;9.56;100.00
52693;BME280;68218;51.012;-1.648;2023-03-18T01:29:04;99419.69;;;9.58;99.98
52693;BME280;68218;51.012;-1.648;2023-03-18T01:31:30;99425.91;;;9.53;100.00
52693;BME280;68218;51.012;-1.648;2023-03-18T01:33:56;99414.84;;;9.60;100.00
52693;BME280;68218;51.012;-1.648;2023-03-18T01:36:21;99421.06;;;9.50;100.00
52693;BME280;68218;51.012;-1.648;2023-03-18T01:38:46;99420.81;;;9.47;100.00
52693;BME280;68218;51.012;-1.648;2023-03-18T01:41:12;99412.47;;;9.48;100.00
52693;BME280;68218;51.012;-1.648;2023-03-18T01:43:40;99418.91;;;9.47;100.00
52693;BME280;68218;51.012;-1.648;2023-03-18T01:49:16;99419.47;;;9.49;100.00
52693;BME280;68218;51.012;-1.648;2023-03-18T01:51:44;99409.25;;;9.46;100.00
52693;BME280;68218;51.012;-1.648;2023-03-18T01:54:10;99409.53;;;9.45;100.00
52693;BME280;68218;51.012;-1.648;2023-03-18T01:56:38;99410.84;;;9.47;100.00
52693;BME280;68218;51.012;-1.648;2023-03-18T01:59:05;99415.44;;;9.42;99.78
52693;BME280;68218;51.012;-1.648;2023-03-18T02:03:57;99408.72;;;9.44;99.87
52693;BME280;68218;51.012;-1.648;2023-03-18T02:06:24;99406.84;;;9.40;100.00
52693;BME280;68218;51.012;-1.648;2023-03-18T02:08:49;99411.13;;;9.41;100.00
52693;BME280;68218;51.012;-1.648;2023-03-18T02:11:15;99407.34;;;9.47;100.00
52693;BME280;68218;51.012;-1.648;2023-03-18T02:13:41;99412.50;;;9.43;100.00
52693;BME280;68218;51.012;-1.648;2023-03-18T02:16:12;99411.97;;;9.41;100.00
52693;BME280;68218;51.012;-1.648;2023-03-18T02:18:40;99402.28;;;9.35;100.00
52693;BME280;68218;51.012;-1.648;2023-03-18T02:28:55;99394.75;;;9.32;99.62
52693;BME280;68218;51.012;-1.648;2023-03-18T02:31:22;99398.03;;;9.24;99.66
52693;BME280;68218;51.012;-1.648;2023-03-18T02:33:47;99386.72;;;9.27;99.78
52693;BME280;68218;51.012;-1.648;2023-03-18T02:36:23;99391.81;;;9.28;100.00
52693;BME280;68218;51.012;-1.648;2023-03-18T02:38:49;99397.75;;;9.20;100.00
52693;BME280;68218;51.012;-1.648;2023-03-18T02:41:19;99385.69;;;9.17;99.99
52693;BME280;68218;51.012;-1.648;2023-03-18T02:43:44;99381.34;;;9.16;100.00
52693;BME280;68218;51.012;-1.648;2023-03-18T02:46:19;99387.28;;;9.18;100.00
52693;BME280;68218;51.012;-1.648;2023-03-18T02:48:45;99388.06;;;9.29;100.00
52693;BME280;68218;51.012;-1.648;2023-03-18T02:51:13;99389.69;;;9.20;99.99
52693;BME280;68218;51.012;-1.648;2023-03-18T02:53:40;99389.19;;;9.13;99.50
52693;BME280;68218;51.012;-1.648;2023-03-18T02:56:06;99391.59;;;9.14;99.47
52693;BME280;68218;51.012;-1.648;2023-03-18T02:58:32;99396.69;;;9.21;99.49
52693;BME280;68218;51.012;-1.648;2023-03-18T03:00:58;99400.16;;;9.27;99.19
52693;BME280;68218;51.012;-1.648;2023-03-18T03:03:24;99399.94;;;9.13;99.11
52693;BME280;68218;51.012;-1.648;2023-03-18T03:05:49;99404.81;;;9.06;99.43
52693;BME280;68218;51.012;-1.648;2023-03-18T03:08:15;99397.28;;;9.03;99.51
52693;BME280;68218;51.012;-1.648;2023-03-18T03:10:40;99401.56;;;9.14;99.55
52693;BME280;68218;51.012;-1.648;2023-03-18T03:13:06;99404.00;;;9.05;99.11
52693;BME280;68218;51.012;-1.648;2023-03-18T03:15:31;99403.50;;;8.98;99.92
52693;BME280;68218;51.012;-1.648;2023-03-18T03:17:57;99418.00;;;9.02;99.76
52693;BME280;68218;51.012;-1.648;2023-03-18T03:20:23;99420.94;;;9.00;99.86
52693;BME280;68218;51.012;-1.648;2023-03-18T03:22:49;99417.44;;;9.05;99.41
52693;BME280;68218;51.012;-1.648;2023-03-18T03:25:14;99423.09;;;9.09;99.42
52693;BME280;68218;51.012;-1.648;2023-03-18T03:27:40;99423.91;;;9.04;99.59
52693;BME280;68218;51.012;-1.648;2023-03-18T03:30:08;99422.03;;;8.99;99.78
52693;BME280;68218;51.012;-1.648;2023-03-18T03:32:34;99420.94;;;9.06;99.73
52693;BME280;68218;51.012;-1.648;2023-03-18T03:34:59;99428.47;;;9.04;99.72
52693;BME280;68218;51.012;-1.648;2023-03-18T03:37:25;99428.22;;;9.00;99.53
52693;BME280;68218;51.012;-1.648;2023-03-18T03:39:51;99433.06;;;9.03;99.64
52693;BME280;68218;51.012;-1.648;2023-03-18T03:42:16;99440.03;;;9.04;99.27
52693;BME280;68218;51.012;-1.648;2023-03-18T03:44:41;99434.66;;;9.04;99.63
52693;BME280;68218;51.012;-1.648;2023-03-18T03:47:07;99443.53;;;9.05;99.25
52693;BME280;68218;51.012;-1.648;2023-03-18T03:49:32;99438.44;;;9.08;99.04
52693;BME280;68218;51.012;-1.648;2023-03-18T03:51:57;99435.75;;;9.08;99.01
52693;BME280;68218;51.012;-1.648;2023-03-18T03:54:23;99431.97;;;8.99;98.84
52693;BME280;68218;51.012;-1.648;2023-03-18T03:56:49;99424.44;;;8.96;99.13
52693;BME280;68218;51.012;-1.648;2023-03-18T03:59:15;99425.81;;;8.93;99.32
52693;BME280;68218;51.012;-1.648;2023-03-18T04:01:40;99422.59;;;8.86;99.22
52693;BME280;68218;51.012;-1.648;2023-03-18T04:04:06;99427.16;;;8.91;99.18
52693;BME280;68218;51.012;-1.648;2023-03-18T04:06:31;99421.50;;;8.82;99.10
52693;BME280;68218;51.012;-1.648;2023-03-18T04:08:56;99423.94;;;8.84;99.08
52693;BME280;68218;51.012;-1.648;2023-03-18T04:11:22;99426.38;;;8.75;99.00
52693;BME280;68218;51.012;-1.648;2023-03-18T04:13:47;99425.31;;;8.71;99.10
52693;BME280;68218;51.012;-1.648;2023-03-18T04:16:13;99422.63;;;8.66;99.24
52693;BME280;68218;51.012;-1.648;2023-03-18T04:18:41;99430.41;;;8.62;99.43
52693;BME280;68218;51.012;-1.648;2023-03-18T04:21:06;99422.63;;;8.55;99.55
52693;BME280;68218;51.012;-1.648;2023-03-18T04:23:32;99423.69;;;8.54;99.75
52693;BME280;68218;51.012;-1.648;2023-03-18T04:25:57;99429.59;;;8.51;99.89
52693;BME280;68218;51.012;-1.648;2023-03-18T04:28:23;99429.06;;;8.49;100.00
52693;BME280;68218;51.012;-1.648;2023-03-18T04:30:48;99423.94;;;8.53;99.92
52693;BME280;68218;51.012;-1.648;2023-03-18T04:33:14;99421.28;;;8.53;100.00
52693;BME280;68218;51.012;-1.648;2023-03-18T04:35:39;99418.56;;;8.53;99.60
52693;BME280;68218;51.012;-1.648;2023-03-18T04:38:07;99416.69;;;8.48;99.76
52693;BME280;68218;51.012;-1.648;2023-03-18T04:40:33;99422.34;;;8.47;99.50
52693;BME280;68218;51.012;-1.648;2023-03-18T04:42:58;99433.38;;;8.45;99.50
52693;BME280;68218;51.012;-1.648;2023-03-18T04:45:23;99428.75;;;8.40;99.68
52693;BME280;68218;51.012;-1.648;2023-03-18T04:47:49;99434.66;;;8.37;99.83
52693;BME280;68218;51.012;-1.648;2023-03-18T04:50:15;99429.03;;;8.39;99.97
52693;BME280;68218;51.012;-1.648;2023-03-18T04:52:41;99427.69;;;8.31;100.00
52693;BME280;68218;51.012;-1.648;2023-03-18T04:55:06;99437.59;;;8.25;99.88
52693;BME280;68218;51.012;-1.648;2023-03-18T04:57:33;99434.13;;;8.25;99.98
52693;BME280;68218;51.012;-1.648;2023-03-18T05:00:01;99431.94;;;8.06;100.00
52693;BME280;68218;51.012;-1.648;2023-03-18T05:02:28;99431.16;;;8.16;100.00
52693;BME280;68218;51.012;-1.648;2023-03-18T05:04:54;99433.06;;;8.21;100.00
52693;BME280;68218;51.012;-1.648;2023-03-18T05:07:19;99430.38;;;8.26;100.00
52693;BME280;68218;51.012;-1.648;2023-03-18T05:09:45;99431.97;;;8.27;100.00
52693;BME280;68218;51.012;-1.648;2023-03-18T05:12:11;99433.31;;;8.24;100.00
52693;BME280;68218;51.012;-1.648;2023-03-18T05:14:37;99431.72;;;8.29;100.00
52693;BME280;68218;51.012;-1.648;2023-03-18T05:17:02;99419.34;;;8.33;100.00
52693;BME280;68218;51.012;-1.648;2023-03-18T05:19:28;99418.53;;;8.32;100.00
52693;BME280;68218;51.012;-1.648;2023-03-18T05:21:53;99424.19;;;8.36;100.00
52693;BME280;68218;51.012;-1.648;2023-03-18T05:24:19;99425.53;;;8.33;100.00
52693;BME280;68218;51.012;-1.648;2023-03-18T05:26:46;99423.13;;;8.42;100.00
52693;BME280;68218;51.012;-1.648;2023-03-18T05:29:11;99425.31;;;8.50;100.00
52693;BME280;68218;51.012;-1.648;2023-03-18T05:31:37;99420.19;;;8.54;100.00
52693;BME280;68218;51.012;-1.648;2023-03-18T05:34:02;99427.44;;;8.48;100.00
52693;BME280;68218;51.012;-1.648;2023-03-18T05:36:28;99432.81;;;8.43;100.00
52693;BME280;68218;51.012;-1.648;2023-03-18T05:38:53;99424.75;;;8.43;100.00
52693;BME280;68218;51.012;-1.648;2023-03-18T05:41:19;99425.28;;;8.40;100.00
52693;BME280;68218;51.012;-1.648;2023-03-18T05:43:44;99425.28;;;8.30;100.00
52693;BME280;68218;51.012;-1.648;2023-03-18T05:46:10;99425.53;;;8.33;100.00
52693;BME280;68218;51.012;-1.648;2023-03-18T05:48:36;99428.22;;;8.38;100.00
52693;BME280;68218;51.012;-1.648;2023-03-18T05:51:02;99431.72;;;8.39;100.00
52693;BME280;68218;51.012;-1.648;2023-03-18T05:53:28;99427.41;;;8.28;100.00
52693;BME280;68218;51.012;-1.648;2023-03-18T05:55:53;99426.31;;;8.23;100.00
52693;BME280;68218;51.012;-1.648;2023-03-18T05:58:20;99429.28;;;8.22;100.00
52693;BME280;68218;51.012;-1.648;2023-03-18T06:00:45;99429.28;;;8.17;100.00
52693;BME280;68218;51.012;-1.648;2023-03-18T06:03:10;99428.22;;;8.18;100.00
52693;BME280;68218;51.012;-1.648;2023-03-18T06:05:36;99431.97;;;8.17;100.00
52693;BME280;68218;51.012;-1.648;2023-03-18T06:08:04;99430.91;;;8.18;100.00
52693;BME280;68218;51.012;-1.648;2023-03-18T06:10:29;99432.22;;;8.15;100.00
52693;BME280;68218;51.012;-1.648;2023-03-18T06:12:55;99431.16;;;8.16;100.00
52693;BME280;68218;51.012;-1.648;2023-03-18T06:15:21;99436.28;;;8.18;100.00
52693;BME280;68218;51.012;-1.648;2023-03-18T06:17:46;99436.78;;;8.15;100.00
52693;BME280;68218;51.012;-1.648;2023-03-18T06:20:12;99439.75;;;8.18;100.00
52693;BME280;68218;51.012;-1.648;2023-03-18T06:22:38;99435.72;;;8.16;100.00
52693;BME280;68218;51.012;-1.648;2023-03-18T06:25:04;99440.28;;;8.15;100.00
52693;BME280;68218;51.012;-1.648;2023-03-18T06:27:32;99440.28;;;8.15;100.00
52693;BME280;68218;51.012;-1.648;2023-03-18T06:29:57;99445.38;;;8.17;100.00
52693;BME280;68218;51.012;-1.648;2023-03-18T06:32:26;99446.75;;;8.19;100.00
52693;BME280;68218;51.012;-1.648;2023-03-18T06:34:52;99451.56;;;8.22;100.00
52693;BME280;68218;51.012;-1.648;2023-03-18T06:37:17;99458.56;;;8.18;100.00
52693;BME280;68218;51.012;-1.648;2023-03-18T06:39:42;99449.44;;;8.19;100.00
52693;BME280;68218;51.012;-1.648;2023-03-18T06:42:08;99452.09;;;8.14;100.00
52693;BME280;68218;51.012;-1.648;2023-03-18T06:44:34;99456.69;;;8.24;100.00
52693;BME280;68218;51.012;-1.648;2023-03-18T06:47:01;99457.75;;;8.23;100.00
52693;BME280;68218;51.012;-1.648;2023-03-18T06:49:27;99458.28;;;8.25;100.00
52693;BME280;68218;51.012;-1.648;2023-03-18T06:51:52;99457.78;;;8.33;100.00
52693;BME280;68218;51.012;-1.648;2023-03-18T06:54:18;99460.72;;;8.32;100.00
52693;BME280;68218;51.012;-1.648;2023-03-18T06:56:44;99464.22;;;8.32;100.00
52693;BME280;68218;51.012;-1.648;2023-03-18T06:59:10;99469.59;;;8.37;100.00
52693;BME280;68218;51.012;-1.648;2023-03-18T07:01:36;99461.00;;;8.35;100.00
52693;BME280;68218;51.012;-1.648;2023-03-18T07:04:02;99464.22;;;8.32;100.00
52693;BME280;68218;51.012;-1.648;2023-03-18T07:06:28;99466.63;;;8.34;100.00
52693;BME280;68218;51.012;-1.648;2023-03-18T07:08:56;99464.22;;;8.32;100.00
52693;BME280;68218;51.012;-1.648;2023-03-18T07:11:22;99464.75;;;8.39;100.00
52693;BME280;68218;51.012;-1.648;2023-03-18T07:13:49;99469.91;;;8.46;100.00
52693;BME280;68218;51.012;-1.648;2023-03-18T07:16:15;99475.81;;;8.53;100.00
52693;BME280;68218;51.012;-1.648;2023-03-18T07:18:40;99472.06;;;8.54;100.00
52693;BME280;68218;51.012;-1.648;2023-03-18T07:21:06;99465.38;;;8.62;100.00
52693;BME280;68218;51.012;-1.648;2023-03-18T07:23:32;99464.28;;;8.68;100.00
52693;BME280;68218;51.012;-1.648;2023-03-18T07:25:58;99471.53;;;8.73;100.00
52693;BME280;68218;51.012;-1.648;2023-03-18T07:28:24;99468.84;;;8.78;100.00
52693;BME280;68218;51.012;-1.648;2023-03-18T07:30:49;99469.38;;;8.85;100.00
52693;BME280;68218;51.012;-1.648;2023-03-18T07:33:15;99477.72;;;8.89;100.00
52693;BME280;68218;51.012;-1.648;2023-03-18T07:35:41;99478.81;;;8.88;100.00
52693;BME280;68218;51.012;-1.648;2023-03-18T07:38:07;99480.94;;;8.75;100.00
52693;BME280;68218;51.012;-1.648;2023-03-18T07:40:33;99486.03;;;8.82;100.00
52693;BME280;68218;51.012;-1.648;2023-03-18T07:42:58;99484.72;;;8.85;100.00
52693;BME280;68218;51.012;-1.648;2023-03-18T07:45:24;99481.75;;;8.91;100.00
52693;BME280;68218;51.012;-1.648;2023-03-18T07:47:50;99484.44;;;9.02;100.00
52693;BME280;68218;51.012;-1.648;2023-03-18T07:50:15;99481.75;;;9.02;100.00
52693;BME280;68218;51.012;-1.648;2023-03-18T07:52:41;99484.97;;;9.04;100.00
52693;BME280;68218;51.012;-1.648;2023-03-18T07:55:07;99495.19;;;9.12;100.00
52693;BME280;68218;51.012;-1.648;2023-03-18T07:57:33;99485.75;;;9.19;100.00
52693;BME280;68218;51.012;-1.648;2023-03-18T07:59:58;99487.63;;;9.14;100.00
52693;BME280;68218;51.012;-1.648;2023-03-18T08:02:23;99497.59;;;9.13;100.00
52693;BME280;68218;51.012;-1.648;2023-03-18T08:04:49;99495.44;;;9.15;100.00
52693;BME280;68218;51.012;-1.648;2023-03-18T08:07:15;99494.59;;;9.25;100.00
52693;BME280;68218;51.012;-1.648;2023-03-18T08:09:42;99493.78;;;9.35;100.00
52693;BME280;68218;51.012;-1.648;2023-03-18T08:12:07;99499.16;;;9.40;100.00
52693;BME280;68218;51.012;-1.648;2023-03-18T08:14:32;99497.56;;;9.39;100.00
52693;BME280;68218;51.012;-1.648;2023-03-18T08:16:58;99505.06;;;9.42;99.84
52693;BME280;68218;51.012;-1.648;2023-03-18T08:19:23;99505.63;;;9.44;99.81
52693;BME280;68218;51.012;-1.648;2023-03-18T08:21:48;99505.84;;;9.53;99.99
52693;BME280;68218;51.012;-1.648;2023-03-18T08:24:14;99505.84;;;9.63;100.00
52693;BME280;68218;51.012;-1.648;2023-03-18T08:26:39;99503.63;;;9.75;99.84
52693;BME280;68218;51.012;-1.648;2023-03-18T08:29:05;99510.88;;;9.80;100.00
52693;BME280;68218;51.012;-1.648;2023-03-18T08:31:30;99505.72;;;9.89;99.59
52693;BME280;68218;51.012;-1.648;2023-03-18T08:33:56;99509.22;;;9.89;99.27
52693;BME280;68218;51.012;-1.648;2023-03-18T08:36:22;99511.97;;;9.79;98.74
52693;BME280;68218;51.012;-1.648;2023-03-18T08:38:49;99512.47;;;9.86;98.94
52693;BME280;68218;51.012;-1.648;2023-03-18T08:41:14;99508.50;;;9.68;98.61
52693;BME280;68218;51.012;-1.648;2023-03-18T08:43:41;99512.75;;;9.85;98.88
52693;BME280;68218;51.012;-1.648;2023-03-18T08:46:06;99514.13;;;9.77;98.00
52693;BME280;68218;51.012;-1.648;2023-03-18T08:48:31;99518.13;;;9.85;98.25
52693;BME280;68218;51.012;-1.648;2023-03-18T08:50:57;99518.91;;;9.96;98.77
52693;BME280;68218;51.012;-1.648;2023-03-18T08:53:23;99515.69;;;9.88;97.87
52693;BME280;68218;51.012;-1.648;2023-03-18T08:55:48;99531.06;;;9.83;97.31
52693;BME280;68218;51.012;-1.648;2023-03-18T08:58:13;99532.44;;;9.75;97.47
52693;BME280;68218;51.012;-1.648;2023-03-18T09:00:40;99534.56;;;9.83;97.90
52693;BME280;68218;51.012;-1.648;2023-03-18T09:03:05;99535.66;;;9.82;97.38
52693;BME280;68218;51.012;-1.648;2023-03-18T09:05:31;99540.81;;;9.73;97.62
52693;BME280;68218;51.012;-1.648;2023-03-18T09:07:56;99532.97;;;9.82;98.17
52693;BME280;68218;51.012;-1.648;2023-03-18T09:10:22;99544.81;;;9.81;98.31
52693;BME280;68218;51.012;-1.648;2023-03-18T09:12:48;99536.69;;;9.86;98.78
52693;BME280;68218;51.012;-1.648;2023-03-18T09:15:14;99545.59;;;9.82;97.88
52693;BME280;68218;51.012;-1.648;2023-03-18T09:17:40;99543.22;;;9.80;97.95
52693;BME280;68218;51.012;-1.648;2023-03-18T09:20:06;99537.53;;;9.82;98.34
52693;BME280;68218;51.012;-1.648;2023-03-18T09:22:32;99535.69;;;9.67;99.05
52693;BME280;68218;51.012;-1.648;2023-03-18T09:24:58;99539.47;;;9.61;100.00
52693;BME280;68218;51.012;-1.648;2023-03-18T09:27:24;99545.13;;;9.64;100.00
52693;BME280;68218;51.012;-1.648;2023-03-18T09:29:49;99543.53;;;9.58;99.65
52693;BME280;68218;51.012;-1.648;2023-03-18T09:32:15;99547.53;;;9.66;99.80
52693;BME280;68218;51.012;-1.648;2023-03-18T09:34:41;99544.81;;;9.81;100.00
52693;BME280;68218;51.012;-1.648;2023-03-18T09:37:06;99543.72;;;9.87;99.25
52693;BME280;68218;51.012;-1.648;2023-03-18T09:39:31;99547.69;;;10.00;99.34
52693;BME280;68218;51.012;-1.648;2023-03-18T09:44:59;99555.22;;;10.08;97.67
52693;BME280;68218;51.012;-1.648;2023-03-18T09:50:11;99567.28;;;10.26;97.22
52693;BME280;68218;51.012;-1.648;2023-03-18T09:52:40;99561.16;;;10.60;97.39
52693;BME280;68218;51.012;-1.648;2023-03-18T09:55:23;99564.81;;;10.80;95.77
52693;BME280;68218;51.012;-1.648;2023-03-18T09:57:50;99559.19;;;11.11;94.75
52693;BME280;68218;51.012;-1.648;2023-03-18T10:05:15;99572.06;;;10.84;87.68
52693;BME280;68218;51.012;-1.648;2023-03-18T10:07:42;99575.63;;;10.80;90.49
52693;BME280;68218;51.012;-1.648;2023-03-18T10:10:15;99575.63;;;11.14;92.39
52693;BME280;68218;51.012;-1.648;2023-03-18T10:12:46;99569.94;;;11.16;89.88
52693;BME280;68218;51.012;-1.648;2023-03-18T10:17:45;99562.28;;;10.94;89.22
52693;BME280;68218;51.012;-1.648;2023-03-18T10:20:14;99566.69;;;11.14;90.28
52693;BME280;68218;51.012;-1.648;2023-03-18T10:33:12;99584.28;;;11.40;86.48
52693;BME280;68218;51.012;-1.648;2023-03-18T10:38:11;99574.13;;;12.34;84.49
52693;BME280;68218;51.012;-1.648;2023-03-18T10:40:38;99578.41;;;12.35;87.59
52693;BME280;68218;51.012;-1.648;2023-03-18T10:43:11;99581.59;;;12.18;86.16
52693;BME280;68218;51.012;-1.648;2023-03-18T10:45:39;99578.50;;;12.06;88.38
52693;BME280;68218;51.012;-1.648;2023-03-18T10:48:09;99586.09;;;11.79;86.95
52693;BME280;68218;51.012;-1.648;2023-03-18T10:50:41;99592.81;;;11.53;89.14
52693;BME280;68218;51.012;-1.648;2023-03-18T10:58:17;99585.50;;;11.58;84.12
52693;BME280;68218;51.012;-1.648;2023-03-18T11:00:43;99597.09;;;12.12;84.47
52693;BME280;68218;51.012;-1.648;2023-03-18T11:03:17;99589.38;;;12.25;84.54
52693;BME280;68218;51.012;-1.648;2023-03-18T11:05:44;99588.97;;;12.55;87.14
52693;BME280;68218;51.012;-1.648;2023-03-18T11:08:26;99593.28;;;12.95;83.79
52693;BME280;68218;51.012;-1.648;2023-03-18T11:10:52;99595.44;;;13.77;79.81
52693;BME280;68218;51.012;-1.648;2023-03-18T11:13:18;99594.81;;;13.66;74.71
52693;BME280;68218;51.012;-1.648;2023-03-18T11:15:49;99598.50;;;13.24;74.04
52693;BME280;68218;51.012;-1.648;2023-03-18T11:18:16;99594.22;;;12.85;83.10
52693;BME280;68218;51.012;-1.648;2023-03-18T11:20:43;99597.31;;;12.78;79.35
52693;BME280;68218;51.012;-1.648;2023-03-18T11:26:41;99598.97;;;12.36;82.41
52693;BME280;68218;51.012;-1.648;2023-03-18T11:29:12;99608.69;;;12.13;86.39
52693;BME280;68218;51.012;-1.648;2023-03-18T11:31:51;99601.03;;;11.96;86.79
52693;BME280;68218;51.012;-1.648;2023-03-18T11:34:18;99607.00;;;11.98;87.06
52693;BME280;68218;51.012;-1.648;2023-03-18T11:36:50;99605.13;;;12.17;87.90
52693;BME280;68218;51.012;-1.648;2023-03-18T11:39:16;99613.41;;;12.26;86.44
52693;BME280;68218;51.012;-1.648;2023-03-18T11:41:42;99609.78;;;12.36;85.23
52693;BME280;68218;51.012;-1.648;2023-03-18T11:44:14;99604.25;;;12.46;86.77
52693;BME280;68218;51.012;-1.648;2023-03-18T11:46:46;99612.00;;;12.53;86.73
52693;BME280;68218;51.012;-1.648;2023-03-18T11:49:14;99617.34;;;12.58;84.23
52693;BME280;68218;51.012;-1.648;2023-03-18T11:56:42;99621.03;;;12.43;81.92
52693;BME280;68218;51.012;-1.648;2023-03-18T12:09:24;99624.06;;;12.80;75.68
52693;BME280;68218;51.012;-1.648;2023-03-18T12:12:05;99627.13;;;12.54;76.55
52693;BME280;68218;51.012;-1.648;2023-03-18T12:17:06;99617.16;;;12.06;81.46
52693;BME280;68218;51.012;-1.648;2023-03-18T12:22:11;99620.28;;;11.94;77.76
52693;BME280;68218;51.012;-1.648;2023-03-18T12:32:22;99627.72;;;12.27;82.57
52693;BME280;68218;51.012;-1.648;2023-03-18T12:34:59;99624.91;;;12.37;83.92
52693;BME280;68218;51.012;-1.648;2023-03-18T12:40:37;99628.81;;;12.69;83.68
52693;BME280;68218;51.012;-1.648;2023-03-18T12:43:07;99630.75;;;12.68;77.82
52693;BME280;68218;51.012;-1.648;2023-03-18T12:45:39;99623.72;;;12.86;80.78
52693;BME280;68218;51.012;-1.648;2023-03-18T12:48:28;99620.50;;;12.65;76.66
52693;BME280;68218;51.012;-1.648;2023-03-18T12:51:03;99635.59;;;12.47;75.94
52693;BME280;68218;51.012;-1.648;2023-03-18T12:53:34;99640.88;;;12.58;80.92
52693;BME280;68218;51.012;-1.648;2023-03-18T12:56:22;99635.63;;;12.66;77.02
52693;BME280;68218;51.012;-1.648;2023-03-18T12:58:54;99636.50;;;13.38;75.30
52693;BME280;68218;51.012;-1.648;2023-03-18T13:01:23;99640.63;;;13.82;72.19
52693;BME280;68218;51.012;-1.648;2023-03-18T13:03:57;99635.50;;;14.36;73.79
52693;BME280;68218;51.012;-1.648;2023-03-18T13:14:11;99623.41;;;14.84;69.89
52693;BME280;68218;51.012;-1.648;2023-03-18T13:16:38;99635.53;;;14.64;67.57
52693;BME280;68218;51.012;-1.648;2023-03-18T13:19:04;99624.53;;;14.83;69.87
52693;BME280;68218;51.012;-1.648;2023-03-18T13:21:30;99624.06;;;15.03;72.81
52693;BME280;68218;51.012;-1.648;2023-03-18T13:26:49;99621.16;;;15.22;64.28
52693;BME280;68218;51.012;-1.648;2023-03-18T13:41:52;99627.06;;;16.01;66.38
52693;BME280;68218;51.012;-1.648;2023-03-18T13:44:36;99622.78;;;16.75;62.61
52693;BME280;68218;51.012;-1.648;2023-03-18T13:47:03;99624.56;;;16.97;67.15
52693;BME280;68218;51.012;-1.648;2023-03-18T13:49:31;99630.44;;;17.60;62.94
52693;BME280;68218;51.012;-1.648;2023-03-18T13:51:58;99623.03;;;17.69;63.33
52693;BME280;68218;51.012;-1.648;2023-03-18T13:54:31;99622.78;;;17.45;63.29
52693;BME280;68218;51.012;-1.648;2023-03-18T13:57:14;99633.00;;;17.65;60.21
52693;BME280;68218;51.012;-1.648;2023-03-18T14:04:50;99633.38;;;17.20;59.11
52693;BME280;68218;51.012;-1.648;2023-03-18T14:07:19;99627.63;;;16.87;63.41
52693;BME280;68218;51.012;-1.648;2023-03-18T14:09:51;99640.31;;;16.34;65.02
52693;BME280;68218;51.012;-1.648;2023-03-18T14:15:02;99639.97;;;16.26;65.39
52693;BME280;68218;51.012;-1.648;2023-03-18T14:22:38;99641.34;;;14.71;71.78
52693;BME280;68218;51.012;-1.648;2023-03-18T14:25:09;99637.84;;;14.70;70.77
52693;BME280;68218;51.012;-1.648;2023-03-18T14:27:48;99644.97;;;14.38;71.65
52693;BME280;68218;51.012;-1.648;2023-03-18T14:33:27;99651.69;;;14.55;73.38
52693;BME280;68218;51.012;-1.648;2023-03-18T14:35:48;99657.22;;;14.36;72.22
52693;BME280;68218;51.012;-1.648;2023-03-18T14:38:25;99643.34;;;14.37;72.42
52693;BME280;68218;51.012;-1.648;2023-03-18T14:40:52;99648.16;;;14.68;71.81
52693;BME280;68218;51.012;-1.648;2023-03-18T14:43:23;99653.19;;;14.75;72.79
52693;BME280;68218;51.012;-1.648;2023-03-18T14:45:49;99648.88;;;15.33;70.06
52693;BME280;68218;51.012;-1.648;2023-03-18T14:48:17;99641.69;;;15.14;69.09
52693;BME280;68218;51.012;-1.648;2023-03-18T14:50:46;99647.66;;;15.03;67.51